sensor_id;sensor_type;location;lat;lon;timestamp;pressure;altitude;pressure_sealevel;temperature;humidity
59825;BME280;45703;50.898;6.054;2023-05-09T00:01:37;100391.09;;;15.55;98.25
59825;BME280;45703;50.898;6.054;2023-05-09T00:04:04;100377.59;;;15.50;99.02
59825;BME280;45703;50.898;6.054;2023-05-09T00:06:29;100385.66;;;15.50;97.52
59825;BME280;45703;50.898;6.054;2023-05-09T00:08:56;100368.06;;;15.42;98.26
59825;BME280;45703;50.898;6.054;2023-05-09T00:11:22;100373.44;;;15.42;97.50
59825;BME280;45703;50.898;6.054;2023-05-09T00:13:48;100378.25;;;15.40;98.13
59825;BME280;45703;50.898;6.054;2023-05-09T00:16:15;100379.88;;;15.41;98.16
59825;BME280;45703;50.898;6.054;2023-05-09T00:18:41;100372.56;;;15.37;99.04
59825;BME280;45703;50.898;6.054;2023-05-09T00:21:07;100376.63;;;15.39;98.87
59825;BME280;45703;50.898;6.054;2023-05-09T00:23:33;100373.88;;;15.34;99.49
59825;BME280;45703;50.898;6.054;2023-05-09T00:25:59;100371.75;;;15.36;100.00
59825;BME280;45703;50.898;6.054;2023-05-09T00:28:25;100367.94;;;15.32;100.00
59825;BME280;45703;50.898;6.054;2023-05-09T00:30:50;100380.31;;;15.33;100.00
59825;BME280;45703;50.898;6.054;2023-05-09T00:33:16;100368.25;;;15.36;99.96
59825;BME280;45703;50.898;6.054;2023-05-09T00:35:41;100359.63;;;15.34;100.00
59825;BME280;45703;50.898;6.054;2023-05-09T00:38:07;100356.66;;;15.35;100.00
59825;BME280;45703;50.898;6.054;2023-05-09T00:40:32;100361.47;;;15.33;100.00
59825;BME280;45703;50.898;6.054;2023-05-09T00:42:58;100356.66;;;15.35;100.00
59825;BME280;45703;50.898;6.054;2023-05-09T00:45:24;100354.47;;;15.32;100.00
59825;BME280;45703;50.898;6.054;2023-05-09T00:47:49;100352.13;;;15.36;100.00
59825;BME280;45703;50.898;6.054;2023-05-09T00:50:15;100349.66;;;15.34;100.00
59825;BME280;45703;50.898;6.054;2023-05-09T00:52:41;100352.91;;;15.36;100.00
59825;BME280;45703;50.898;6.054;2023-05-09T00:55:07;100344.59;;;15.38;100.00
59825;BME280;45703;50.898;6.054;2023-05-09T00:57:33;100333.34;;;15.41;100.00
59825;BME280;45703;50.898;6.054;2023-05-09T00:59:59;100337.41;;;15.43;100.00
59825;BME280;45703;50.898;6.054;2023-05-09T01:02:25;100330.66;;;15.41;100.00
59825;BME280;45703;50.898;6.054;2023-05-09T01:04:51;100333.34;;;15.41;100.00
59825;BME280;45703;50.898;6.054;2023-05-09T01:10:02;100324.94;;;15.37;100.00
59825;BME280;45703;50.898;6.054;2023-05-09T01:17:48;100328.97;;;15.35;100.00
59825;BME280;45703;50.898;6.054;2023-05-09T01:20:29;100317.66;;;15.33;100.00
59825;BME280;45703;50.898;6.054;2023-05-09T01:29:30;100302.25;;;15.28;100.00
59825;BME280;45703;50.898;6.054;2023-05-09T01:32:02;100297.19;;;15.32;100.00
59825;BME280;45703;50.898;6.054;2023-05-09T01:34:29;100286.09;;;15.28;100.00
59825;BME280;45703;50.898;6.054;2023-05-09T01:36:58;100290.47;;;15.34;100.00
59825;BME280;45703;50.898;6.054;2023-05-09T01:39:25;100289.69;;;15.34;100.00
59825;BME280;45703;50.898;6.054;2023-05-09T01:41:53;100285.09;;;15.34;100.00
59825;BME280;45703;50.898;6.054;2023-05-09T01:44:20;100286.72;;;15.35;100.00
59825;BME280;45703;50.898;6.054;2023-05-09T01:46:48;100284.03;;;15.35;100.00
59825;BME280;45703;50.898;6.054;2023-05-09T01:49:15;100286.72;;;15.35;100.00
59825;BME280;45703;50.898;6.054;2023-05-09T01:51:43;100283.97;;;15.30;100.00
59825;BME280;45703;50.898;6.054;2023-05-09T01:54:10;100286.72;;;15.35;100.00
59825;BME280;45703;50.898;6.054;2023-05-09T01:56:36;100274.03;;;15.31;100.00
59825;BME280;45703;50.898;6.054;2023-05-09T01:59:04;100273.22;;;15.30;100.00
59825;BME280;45703;50.898;6.054;2023-05-09T02:01:31;100264.59;;;15.28;100.00
59825;BME280;45703;50.898;6.054;2023-05-09T02:03:57;100269.13;;;15.28;100.00
59825;BME280;45703;50.898;6.054;2023-05-09T02:06:23;100269.38;;;15.26;100.00
59825;BME280;45703;50.898;6.054;2023-05-09T02:08:49;100283.63;;;15.27;100.00
59825;BME280;45703;50.898;6.054;2023-05-09T02:11:15;100270.44;;;15.25;100.00
59825;BME280;45703;50.898;6.054;2023-05-09T02:13:40;100265.06;;;15.25;100.00
59825;BME280;45703;50.898;6.054;2023-05-09T02:16:06;100263.44;;;15.24;100.00
59825;BME280;45703;50.898;6.054;2023-05-09T02:18:32;100275.81;;;15.25;100.00
59825;BME280;45703;50.898;6.054;2023-05-09T02:21:00;100273.34;;;15.24;100.00
59825;BME280;45703;50.898;6.054;2023-05-09T02:23:26;100268.81;;;15.24;100.00
59825;BME280;45703;50.898;6.054;2023-05-09T02:25:51;100263.94;;;15.21;100.00
59825;BME280;45703;50.898;6.054;2023-05-09T02:28:22;100265.00;;;15.20;100.00
59825;BME280;45703;50.898;6.054;2023-05-09T02:30:50;100271.50;;;15.24;100.00
59825;BME280;45703;50.898;6.054;2023-05-09T02:33:16;100274.19;;;15.24;100.00
59825;BME280;45703;50.898;6.054;2023-05-09T02:35:44;100272.56;;;15.23;100.00
59825;BME280;45703;50.898;6.054;2023-05-09T02:38:11;100270.94;;;15.22;100.00
59825;BME280;45703;50.898;6.054;2023-05-09T02:40:38;100265.56;;;15.22;100.00
59825;BME280;45703;50.898;6.054;2023-05-09T02:43:03;100264.72;;;15.22;100.00
59825;BME280;45703;50.898;6.054;2023-05-09T02:45:29;100265.00;;;15.20;100.00
59825;BME280;45703;50.898;6.054;2023-05-09T02:47:54;100256.94;;;15.20;100.00
59825;BME280;45703;50.898;6.054;2023-05-09T02:50:20;100255.81;;;15.16;100.00
59825;BME280;45703;50.898;6.054;2023-05-09T02:52:45;100260.19;;;15.22;100.00
59825;BME280;45703;50.898;6.054;2023-05-09T02:55:11;100263.09;;;15.21;100.00
59825;BME280;45703;50.898;6.054;2023-05-09T02:57:36;100255.59;;;15.23;100.00
59825;BME280;45703;50.898;6.054;2023-05-09T03:00:03;100255.88;;;15.21;100.00
59825;BME280;45703;50.898;6.054;2023-05-09T03:02:28;100253.75;;;15.23;100.00
59825;BME280;45703;50.898;6.054;2023-05-09T03:04:53;100249.41;;;15.22;100.00
59825;BME280;45703;50.898;6.054;2023-05-09T03:07:19;100238.34;;;15.19;100.00
59825;BME280;45703;50.898;6.054;2023-05-09T03:09:44;100237.03;;;15.21;100.00
59825;BME280;45703;50.898;6.054;2023-05-09T03:12:10;100233.84;;;15.24;100.00
59825;BME280;45703;50.898;6.054;2023-05-09T03:14:35;100232.78;;;15.25;100.00
59825;BME280;45703;50.898;6.054;2023-05-09T03:17:00;100233.28;;;15.22;100.00
59825;BME280;45703;50.898;6.054;2023-05-09T03:19:26;100229.22;;;15.20;100.00
59825;BME280;45703;50.898;6.054;2023-05-09T03:21:51;100231.34;;;15.18;100.00
59825;BME280;45703;50.898;6.054;2023-05-09T03:24:17;100222.16;;;15.14;100.00
59825;BME280;45703;50.898;6.054;2023-05-09T03:26:42;100231.03;;;15.14;100.00
59825;BME280;45703;50.898;6.054;2023-05-09T03:29:07;100218.66;;;15.13;100.00
59825;BME280;45703;50.898;6.054;2023-05-09T03:31:33;100215.91;;;15.08;100.00
59825;BME280;45703;50.898;6.054;2023-05-09T03:33:59;100226.16;;;15.11;100.00
59825;BME280;45703;50.898;6.054;2023-05-09T03:36:24;100219.16;;;15.10;100.00
59825;BME280;45703;50.898;6.054;2023-05-09T03:38:50;100219.16;;;15.10;100.00
59825;BME280;45703;50.898;6.054;2023-05-09T03:41:16;100211.09;;;15.10;100.00
59825;BME280;45703;50.898;6.054;2023-05-09T03:43:41;100212.16;;;15.09;100.00
59825;BME280;45703;50.898;6.054;2023-05-09T03:46:07;100208.91;;;15.07;100.00
59825;BME280;45703;50.898;6.054;2023-05-09T03:48:32;100198.16;;;15.07;100.00
59825;BME280;45703;50.898;6.054;2023-05-09T03:50:57;100204.09;;;15.09;100.00
59825;BME280;45703;50.898;6.054;2023-05-09T03:53:23;100207.84;;;15.08;100.00
59825;BME280;45703;50.898;6.054;2023-05-09T03:55:48;100194.06;;;15.05;100.00
59825;BME280;45703;50.898;6.054;2023-05-09T03:58:14;100200.84;;;15.07;100.00
59825;BME280;45703;50.898;6.054;2023-05-09T04:00:40;100193.84;;;15.06;100.00
59825;BME280;45703;50.898;6.054;2023-05-09T04:03:05;100191.16;;;15.06;100.00
59825;BME280;45703;50.898;6.054;2023-05-09T04:05:31;100191.94;;;15.07;100.00
59825;BME280;45703;50.898;6.054;2023-05-09T04:08:00;100196.25;;;15.08;100.00
59825;BME280;45703;50.898;6.054;2023-05-09T04:10:25;100205.44;;;15.12;100.00
59825;BME280;45703;50.898;6.054;2023-05-09T04:12:50;100203.31;;;15.14;100.00
59825;BME280;45703;50.898;6.054;2023-05-09T04:15:16;100194.47;;;15.13;100.00
59825;BME280;45703;50.898;6.054;2023-05-09T04:17:41;100192.56;;;15.14;100.00
59825;BME280;45703;50.898;6.054;2023-05-09T04:20:08;100188.53;;;15.11;100.00
59825;BME280;45703;50.898;6.054;2023-05-09T04:22:35;100190.69;;;15.14;100.00
59825;BME280;45703;50.898;6.054;2023-05-09T04:25:00;100200.41;;;15.15;100.00
59825;BME280;45703;50.898;6.054;2023-05-09T04:27:26;100197.94;;;15.14;100.00
59825;BME280;45703;50.898;6.054;2023-05-09T04:29:52;100193.91;;;15.11;100.00
59825;BME280;45703;50.898;6.054;2023-05-09T04:32:17;100190.66;;;15.09;100.00
59825;BME280;45703;50.898;6.054;2023-05-09T04:34:45;100188.47;;;15.06;100.00
59825;BME280;45703;50.898;6.054;2023-05-09T04:37:10;100191.16;;;15.06;100.00
59825;BME280;45703;50.898;6.054;2023-05-09T04:39:37;100187.06;;;15.04;100.00
59825;BME280;45703;50.898;6.054;2023-05-09T04:42:03;100191.94;;;15.07;100.00
59825;BME280;45703;50.898;6.054;2023-05-09T04:44:29;100185.78;;;15.06;100.00
59825;BME280;45703;50.898;6.054;2023-05-09T04:46:54;100171.75;;;15.04;100.00
59825;BME280;45703;50.898;6.054;2023-05-09T04:49:20;100175.31;;;15.10;100.00
59825;BME280;45703;50.898;6.054;2023-05-09T04:51:45;100174.81;;;15.13;100.00
59825;BME280;45703;50.898;6.054;2023-05-09T04:54:10;100171.88;;;15.14;100.00
59825;BME280;45703;50.898;6.054;2023-05-09T04:56:36;100171.38;;;15.17;100.00
59825;BME280;45703;50.898;6.054;2023-05-09T04:59:01;100167.13;;;15.21;100.00
59825;BME280;45703;50.898;6.054;2023-05-09T05:01:27;100168.75;;;15.22;100.00
59825;BME280;45703;50.898;6.054;2023-05-09T05:03:52;100162.03;;;15.25;100.00
59825;BME280;45703;50.898;6.054;2023-05-09T05:06:17;100167.75;;;15.28;100.00
59825;BME280;45703;50.898;6.054;2023-05-09T05:08:43;100162.69;;;15.32;100.00
59825;BME280;45703;50.898;6.054;2023-05-09T05:11:09;100158.94;;;15.33;100.00
59825;BME280;45703;50.898;6.054;2023-05-09T05:13:34;100148.72;;;15.35;100.00
59825;BME280;45703;50.898;6.054;2023-05-09T05:16:00;100142.28;;;15.36;100.00
59825;BME280;45703;50.898;6.054;2023-05-09T05:18:25;100137.75;;;15.41;100.00
59825;BME280;45703;50.898;6.054;2023-05-09T05:20:50;100146.19;;;15.50;100.00
59825;BME280;45703;50.898;6.054;2023-05-09T05:23:16;100136.50;;;15.49;100.00
59825;BME280;45703;50.898;6.054;2023-05-09T05:25:42;100127.13;;;15.56;100.00
59825;BME280;45703;50.898;6.054;2023-05-09T05:28:07;100126.69;;;15.64;100.00
59825;BME280;45703;50.898;6.054;2023-05-09T05:30:33;100126.19;;;15.72;100.00
59825;BME280;45703;50.898;6.054;2023-05-09T05:32:58;100117.06;;;15.73;100.00
59825;BME280;45703;50.898;6.054;2023-05-09T05:35:24;100120.06;;;15.82;100.00
59825;BME280;45703;50.898;6.054;2023-05-09T05:37:49;100116.88;;;15.85;100.00
59825;BME280;45703;50.898;6.054;2023-05-09T05:40:15;100122.59;;;15.93;100.00
59825;BME280;45703;50.898;6.054;2023-05-09T05:42:40;100119.66;;;15.94;100.00
59825;BME280;45703;50.898;6.054;2023-05-09T05:45:06;100117.50;;;15.96;100.00
59825;BME280;45703;50.898;6.054;2023-05-09T05:47:35;100117.00;;;15.99;100.00
59825;BME280;45703;50.898;6.054;2023-05-09T05:50:01;100119.94;;;16.03;100.00
59825;BME280;45703;50.898;6.054;2023-05-09T05:52:27;100111.31;;;16.01;100.00
59825;BME280;45703;50.898;6.054;2023-05-09T05:54:53;100108.13;;;16.04;100.00
59825;BME280;45703;50.898;6.054;2023-05-09T05:57:19;100096.81;;;16.07;100.00
59825;BME280;45703;50.898;6.054;2023-05-09T05:59:48;100100.66;;;16.11;100.00
59825;BME280;45703;50.898;6.054;2023-05-09T06:02:14;100100.38;;;16.12;100.00
59825;BME280;45703;50.898;6.054;2023-05-09T06:04:40;100090.69;;;16.16;100.00
59825;BME280;45703;50.898;6.054;2023-05-09T06:07:06;100090.72;;;16.21;100.00
59825;BME280;45703;50.898;6.054;2023-05-09T06:09:31;100086.19;;;16.27;100.00
59825;BME280;45703;50.898;6.054;2023-05-09T06:11:57;100080.81;;;16.32;100.00
59825;BME280;45703;50.898;6.054;2023-05-09T06:14:22;100072.78;;;16.37;100.00
59825;BME280;45703;50.898;6.054;2023-05-09T06:16:48;100070.13;;;16.47;100.00
59825;BME280;45703;50.898;6.054;2023-05-09T06:19:13;100070.69;;;16.54;100.00
59825;BME280;45703;50.898;6.054;2023-05-09T06:21:38;100056.69;;;16.57;100.00
59825;BME280;45703;50.898;6.054;2023-05-09T06:24:04;100062.13;;;16.62;100.00
59825;BME280;45703;50.898;6.054;2023-05-09T06:26:29;100067.00;;;16.65;99.71
59825;BME280;45703;50.898;6.054;2023-05-09T06:28:55;100063.47;;;16.69;100.00
59825;BME280;45703;50.898;6.054;2023-05-09T06:31:20;100057.31;;;16.74;100.00
59825;BME280;45703;50.898;6.054;2023-05-09T06:33:46;100046.53;;;16.79;100.00
59825;BME280;45703;50.898;6.054;2023-05-09T06:36:11;100055.72;;;16.88;99.25
59825;BME280;45703;50.898;6.054;2023-05-09T06:38:36;100050.34;;;16.93;98.87
59825;BME280;45703;50.898;6.054;2023-05-09T06:41:02;100043.88;;;16.99;98.43
59825;BME280;45703;50.898;6.054;2023-05-09T06:43:27;100037.69;;;17.03;98.16
59825;BME280;45703;50.898;6.054;2023-05-09T06:45:53;100042.00;;;17.04;97.46
59825;BME280;45703;50.898;6.054;2023-05-09T06:48:18;100034.69;;;17.05;97.22
59825;BME280;45703;50.898;6.054;2023-05-09T06:50:43;100028.78;;;17.08;97.29
59825;BME280;45703;50.898;6.054;2023-05-09T06:53:09;100033.13;;;17.14;98.00
59825;BME280;45703;50.898;6.054;2023-05-09T06:55:34;100034.19;;;17.18;97.21
59825;BME280;45703;50.898;6.054;2023-05-09T06:58:00;100034.19;;;17.23;96.78
59825;BME280;45703;50.898;6.054;2023-05-09T07:00:25;100030.44;;;17.29;97.69
59825;BME280;45703;50.898;6.054;2023-05-09T07:02:51;100032.91;;;17.40;97.29
59825;BME280;45703;50.898;6.054;2023-05-09T07:05:16;100022.88;;;17.45;96.10
59825;BME280;45703;50.898;6.054;2023-05-09T07:07:41;100020.47;;;17.59;95.76
59825;BME280;45703;50.898;6.054;2023-05-09T07:10:07;100020.19;;;17.70;96.33
59825;BME280;45703;50.898;6.054;2023-05-09T07:12:34;100014.75;;;17.80;95.47
59825;BME280;45703;50.898;6.054;2023-05-09T07:14:59;100013.38;;;17.93;94.77
59825;BME280;45703;50.898;6.054;2023-05-09T07:17:25;100015.50;;;18.06;95.16
59825;BME280;45703;50.898;6.054;2023-05-09T07:19:50;100005.75;;;18.15;93.78
59825;BME280;45703;50.898;6.054;2023-05-09T07:22:16;99992.50;;;18.28;94.42
59825;BME280;45703;50.898;6.054;2023-05-09T07:24:41;99994.59;;;18.36;93.42
59825;BME280;45703;50.898;6.054;2023-05-09T07:27:08;100000.22;;;18.50;93.84
59825;BME280;45703;50.898;6.054;2023-05-09T07:29:34;99989.09;;;18.56;91.85
59825;BME280;45703;50.898;6.054;2023-05-09T07:31:59;99990.41;;;18.64;90.58
59825;BME280;45703;50.898;6.054;2023-05-09T07:34:24;99991.97;;;18.75;89.99
59825;BME280;45703;50.898;6.054;2023-05-09T07:36:50;99988.97;;;18.81;90.75
59825;BME280;45703;50.898;6.054;2023-05-09T07:39:15;99987.56;;;18.84;88.81
59825;BME280;45703;50.898;6.054;2023-05-09T07:41:41;99987.31;;;18.85;88.34
59825;BME280;45703;50.898;6.054;2023-05-09T07:44:06;99979.97;;;18.91;88.52
59825;BME280;45703;50.898;6.054;2023-05-09T07:46:34;99984.53;;;18.95;89.44
59825;BME280;45703;50.898;6.054;2023-05-09T07:49:01;99978.84;;;18.96;88.23
59825;BME280;45703;50.898;6.054;2023-05-09T07:51:26;99986.66;;;18.98;87.55
59825;BME280;45703;50.898;6.054;2023-05-09T07:53:52;99978.03;;;18.96;86.82
59825;BME280;45703;50.898;6.054;2023-05-09T07:56:19;99978.59;;;18.93;85.53
59825;BME280;45703;50.898;6.054;2023-05-09T07:58:45;99973.75;;;18.90;87.65
59825;BME280;45703;50.898;6.054;2023-05-09T08:01:10;99963.47;;;18.87;86.37
59825;BME280;45703;50.898;6.054;2023-05-09T08:03:36;99962.66;;;18.87;87.06
59825;BME280;45703;50.898;6.054;2023-05-09T08:06:01;99970.50;;;18.88;85.69
59825;BME280;45703;50.898;6.054;2023-05-09T08:08:26;99953.72;;;18.91;86.97
59825;BME280;45703;50.898;6.054;2023-05-09T08:10:52;99962.88;;;18.95;86.81
59825;BME280;45703;50.898;6.054;2023-05-09T08:13:17;99955.81;;;18.99;86.81
59825;BME280;45703;50.898;6.054;2023-05-09T08:15:43;99950.13;;;19.00;85.57
59825;BME280;45703;50.898;6.054;2023-05-09T08:18:08;99942.25;;;19.04;84.89
59825;BME280;45703;50.898;6.054;2023-05-09T08:20:34;99938.41;;;19.10;84.35
59825;BME280;45703;50.898;6.054;2023-05-09T08:23:00;99943.25;;;19.13;85.75
59825;BME280;45703;50.898;6.054;2023-05-09T08:25:25;99919.72;;;19.13;84.79
59825;BME280;45703;50.898;6.054;2023-05-09T08:27:51;99919.41;;;19.20;84.44
59825;BME280;45703;50.898;6.054;2023-05-09T08:30:16;99918.28;;;19.26;82.70
59825;BME280;45703;50.898;6.054;2023-05-09T08:32:42;99918.75;;;19.33;83.75
59825;BME280;45703;50.898;6.054;2023-05-09T08:35:07;99918.94;;;19.41;84.01
59825;BME280;45703;50.898;6.054;2023-05-09T08:37:34;99907.75;;;19.48;82.68
59825;BME280;45703;50.898;6.054;2023-05-09T08:40:00;99912.53;;;19.56;82.35
59825;BME280;45703;50.898;6.054;2023-05-09T08:42:26;99910.94;;;19.55;80.98
59825;BME280;45703;50.898;6.054;2023-05-09T08:44:52;99912.47;;;19.61;81.65
59825;BME280;45703;50.898;6.054;2023-05-09T08:47:18;99906.53;;;19.59;81.40
59825;BME280;45703;50.898;6.054;2023-05-09T08:49:45;99905.41;;;19.65;81.72
59825;BME280;45703;50.898;6.054;2023-05-09T08:52:12;99903.00;;;19.63;82.33
59825;BME280;45703;50.898;6.054;2023-05-09T08:54:38;99906.03;;;19.57;80.63
59825;BME280;45703;50.898;6.054;2023-05-09T08:57:04;99896.66;;;19.49;80.47
59825;BME280;45703;50.898;6.054;2023-05-09T08:59:30;99896.94;;;19.48;81.18
59825;BME280;45703;50.898;6.054;2023-05-09T09:01:59;99901.25;;;19.49;80.00
59825;BME280;45703;50.898;6.054;2023-05-09T09:04:24;99901.25;;;19.49;80.65
59825;BME280;45703;50.898;6.054;2023-05-09T09:06:50;99903.63;;;19.55;81.02
59825;BME280;45703;50.898;6.054;2023-05-09T09:09:19;99892.50;;;19.57;79.57
59825;BME280;45703;50.898;6.054;2023-05-09T09:11:45;99894.63;;;19.60;79.72
59825;BME280;45703;50.898;6.054;2023-05-09T09:14:14;99883.25;;;19.58;79.53
59825;BME280;45703;50.898;6.054;2023-05-09T09:16:42;99888.09;;;19.61;80.01
59825;BME280;45703;50.898;6.054;2023-05-09T09:19:12;99877.56;;;19.59;80.52
59825;BME280;45703;50.898;6.054;2023-05-09T09:21:40;99875.19;;;19.53;78.13
59825;BME280;45703;50.898;6.054;2023-05-09T09:24:07;99887.66;;;19.54;79.83
59825;BME280;45703;50.898;6.054;2023-05-09T09:26:32;99871.47;;;19.49;80.41
59825;BME280;45703;50.898;6.054;2023-05-09T09:28:57;99876.53;;;19.55;79.85
59825;BME280;45703;50.898;6.054;2023-05-09T09:31:30;99861.53;;;19.63;80.42
59825;BME280;45703;50.898;6.054;2023-05-09T09:34:00;99867.72;;;19.68;78.59
59825;BME280;45703;50.898;6.054;2023-05-09T09:36:29;99858.66;;;19.78;80.06
59825;BME280;45703;50.898;6.054;2023-05-09T09:39:00;99859.06;;;19.90;79.14
59825;BME280;45703;50.898;6.054;2023-05-09T09:41:39;99858.66;;;20.01;80.64
59825;BME280;45703;50.898;6.054;2023-05-09T09:44:15;99849.56;;;20.11;78.92
59825;BME280;45703;50.898;6.054;2023-05-09T09:49:09;99843.28;;;20.34;76.12
59825;BME280;45703;50.898;6.054;2023-05-09T09:51:34;99840.72;;;20.42;77.32
59825;BME280;45703;50.898;6.054;2023-05-09T09:54:01;99843.06;;;20.48;78.43
59825;BME280;45703;50.898;6.054;2023-05-09T09:56:46;99838.97;;;20.51;78.49
59825;BME280;45703;50.898;6.054;2023-05-09T09:59:17;99829.50;;;20.48;77.94
59825;BME280;45703;50.898;6.054;2023-05-09T10:02:05;99825.03;;;20.39;78.24
59825;BME280;45703;50.898;6.054;2023-05-09T10:04:33;99819.75;;;20.29;75.31
59825;BME280;45703;50.898;6.054;2023-05-09T10:07:01;99822.34;;;20.21;75.65
59825;BME280;45703;50.898;6.054;2023-05-09T10:09:31;99823.63;;;20.05;75.98
59825;BME280;45703;50.898;6.054;2023-05-09T10:12:01;99820.53;;;19.93;76.04
59825;BME280;45703;50.898;6.054;2023-05-09T10:14:28;99813.13;;;19.80;75.47
59825;BME280;45703;50.898;6.054;2023-05-09T10:16:55;99815.97;;;19.70;75.88
59825;BME280;45703;50.898;6.054;2023-05-09T10:19:22;99811.16;;;19.67;77.05
59825;BME280;45703;50.898;6.054;2023-05-09T10:21:54;99816.03;;;19.65;77.98
59825;BME280;45703;50.898;6.054;2023-05-09T10:24:26;99813.03;;;19.66;78.40
59825;BME280;45703;50.898;6.054;2023-05-09T10:27:05;99802.50;;;19.65;78.05
59825;BME280;45703;50.898;6.054;2023-05-09T10:29:35;99806.25;;;19.69;77.66
59825;BME280;45703;50.898;6.054;2023-05-09T10:32:14;99800.88;;;19.64;75.13
59825;BME280;45703;50.898;6.054;2023-05-09T10:34:43;99787.38;;;19.59;77.38
59825;BME280;45703;50.898;6.054;2023-05-09T10:37:12;99785.50;;;19.59;77.70
59825;BME280;45703;50.898;6.054;2023-05-09T10:39:38;99793.31;;;19.61;77.53
59825;BME280;45703;50.898;6.054;2023-05-09T10:42:05;99775.97;;;19.62;77.91
59825;BME280;45703;50.898;6.054;2023-05-09T10:44:31;99780.00;;;19.64;76.83
59825;BME280;45703;50.898;6.054;2023-05-09T10:46:58;99771.91;;;19.64;77.23
59825;BME280;45703;50.898;6.054;2023-05-09T10:49:23;99778.13;;;19.65;77.02
59825;BME280;45703;50.898;6.054;2023-05-09T10:51:49;99781.38;;;19.62;77.39
59825;BME280;45703;50.898;6.054;2023-05-09T10:54:28;99776.78;;;19.62;78.79
59825;BME280;45703;50.898;6.054;2023-05-09T10:56:54;99774.59;;;19.64;78.19
59825;BME280;45703;50.898;6.054;2023-05-09T10:59:39;99779.00;;;19.60;78.23
59825;BME280;45703;50.898;6.054;2023-05-09T11:02:11;99766.88;;;19.53;78.93
59825;BME280;45703;50.898;6.054;2023-05-09T11:04:38;99764.25;;;19.48;78.85
59825;BME280;45703;50.898;6.054;2023-05-09T11:07:06;99768.63;;;19.44;80.67
59825;BME280;45703;50.898;6.054;2023-05-09T11:09:50;99767.59;;;19.40;80.50
59825;BME280;45703;50.898;6.054;2023-05-09T11:12:18;99762.19;;;19.40;82.02
59825;BME280;45703;50.898;6.054;2023-05-09T11:14:49;99768.44;;;19.40;82.97
59825;BME280;45703;50.898;6.054;2023-05-09T11:25:10;99752.41;;;19.44;83.69
59825;BME280;45703;50.898;6.054;2023-05-09T11:27:47;99754.59;;;19.42;83.24
59825;BME280;45703;50.898;6.054;2023-05-09T11:30:18;99744.69;;;19.32;84.30
59825;BME280;45703;50.898;6.054;2023-05-09T11:35:15;99741.38;;;19.17;83.84
59825;BME280;45703;50.898;6.054;2023-05-09T11:37:45;99734.66;;;19.09;84.20
59825;BME280;45703;50.898;6.054;2023-05-09T11:40:13;99733.97;;;18.99;85.86
59825;BME280;45703;50.898;6.054;2023-05-09T11:42:43;99742.13;;;18.94;86.53
59825;BME280;45703;50.898;6.054;2023-05-09T11:45:10;99730.00;;;18.92;85.83
59825;BME280;45703;50.898;6.054;2023-05-09T11:47:38;99730.56;;;18.89;86.82
59825;BME280;45703;50.898;6.054;2023-05-09T11:50:08;99729.25;;;18.86;86.87
59825;BME280;45703;50.898;6.054;2023-05-09T11:52:34;99726.22;;;18.88;87.33
59825;BME280;45703;50.898;6.054;2023-05-09T11:55:00;99724.91;;;18.85;88.47
59825;BME280;45703;50.898;6.054;2023-05-09T11:57:25;99718.69;;;18.85;87.66
59825;BME280;45703;50.898;6.054;2023-05-09T11:59:52;99715.78;;;18.81;88.18
59825;BME280;45703;50.898;6.054;2023-05-09T12:02:17;99713.69;;;18.73;88.30
59825;BME280;45703;50.898;6.054;2023-05-09T12:04:43;99712.94;;;18.68;88.67
59825;BME280;45703;50.898;6.054;2023-05-09T12:07:10;99718.16;;;18.59;88.81
59825;BME280;45703;50.898;6.054;2023-05-09T12:09:36;99712.63;;;18.46;88.09
59825;BME280;45703;50.898;6.054;2023-05-09T12:12:12;99710.81;;;18.36;89.42
59825;BME280;45703;50.898;6.054;2023-05-09T12:14:38;99712.78;;;18.26;89.73
59825;BME280;45703;50.898;6.054;2023-05-09T12:17:05;99719.59;;;18.18;90.12
59825;BME280;45703;50.898;6.054;2023-05-09T12:19:31;99703.97;;;18.10;91.26
59825;BME280;45703;50.898;6.054;2023-05-09T12:22:02;99704.00;;;18.05;90.45
59825;BME280;45703;50.898;6.054;2023-05-09T12:24:29;99704.06;;;18.00;91.72
59825;BME280;45703;50.898;6.054;2023-05-09T12:26:56;99697.13;;;17.89;92.50
59825;BME280;45703;50.898;6.054;2023-05-09T12:29:22;99695.50;;;17.88;92.41
59825;BME280;45703;50.898;6.054;2023-05-09T12:31:48;99695.25;;;17.85;94.13
59825;BME280;45703;50.898;6.054;2023-05-09T12:34:14;99698.00;;;17.80;91.98
59825;BME280;45703;50.898;6.054;2023-05-09T12:36:43;99694.53;;;17.74;91.75
59825;BME280;45703;50.898;6.054;2023-05-09T12:39:15;99685.16;;;17.62;93.99
59825;BME280;45703;50.898;6.054;2023-05-09T12:41:44;99692.19;;;17.63;93.86
59825;BME280;45703;50.898;6.054;2023-05-09T12:44:20;99685.47;;;17.60;93.46
59825;BME280;45703;50.898;6.054;2023-05-09T12:46:56;99687.91;;;17.57;93.46
59825;BME280;45703;50.898;6.054;2023-05-09T12:49:23;99679.81;;;17.57;94.28
59825;BME280;45703;50.898;6.054;2023-05-09T12:51:49;99680.31;;;17.59;94.67
59825;BME280;45703;50.898;6.054;2023-05-09T12:54:22;99684.13;;;17.58;94.23
59825;BME280;45703;50.898;6.054;2023-05-09T12:56:49;99681.69;;;17.56;94.93
59825;BME280;45703;50.898;6.054;2023-05-09T12:59:19;99680.59;;;17.57;94.12
59825;BME280;45703;50.898;6.054;2023-05-09T13:01:50;99688.16;;;17.60;94.94
59825;BME280;45703;50.898;6.054;2023-05-09T13:04:18;99684.38;;;17.61;94.26
59825;BME280;45703;50.898;6.054;2023-05-09T13:06:52;99671.41;;;17.63;94.80
59825;BME280;45703;50.898;6.054;2023-05-09T13:09:20;99678.97;;;17.61;95.18
59825;BME280;45703;50.898;6.054;2023-05-09T13:11:46;99670.88;;;17.61;95.26
59825;BME280;45703;50.898;6.054;2023-05-09T13:14:12;99660.06;;;17.61;95.49
59825;BME280;45703;50.898;6.054;2023-05-09T13:16:38;99666.78;;;17.64;95.59